UGN weather

Waukegan National Airport
Chicago/Waukegan, Illinois, United States

Public forecast

Using degrees Fahrenheit for public forecast. Weather courtesy of forecast.io.

Current aviation weather report (METAR) for Waukegan National Airport

Retrieved 2020/05/29 10:55 UTC (14 minutes ago):

KUGN 291055Z 00000KT 6SM BR BKN110 15/14 A2991 RMK AO2 SLP121 T01500139

Closest aviation forecast (TAF) to Waukegan National Airport

Closest forecast is Kenosha Regional Airport, 10.7 nm (19.9 km) NNW. Retrieved 2020/05/29 06:22 UTC (5 hours ago):

TAF KENW 290520Z 2906/3006 32006KT P6SM -SHRA SCT015 OVC050 FM290800 29005KT P6SM OVC070 FM291300 30007KT P6SM SKC FM291700 32012G19KT P6SM SCT050 FM300100 32008KT P6SM SCT060